createdAt,value
2022-11-29T00:01:06.364Z,1.90
2022-11-29T00:03:34.819Z,1.70
2022-11-29T00:06:08.908Z,1.70
2022-11-29T00:08:36.281Z,1.60
2022-11-29T00:11:04.786Z,1.65
2022-11-29T00:13:31.331Z,2.25
2022-11-29T01:12:03.886Z,1.60
2022-11-29T01:14:30.395Z,1.75
2022-11-29T01:16:56.959Z,1.27
2022-11-29T01:19:23.451Z,1.25
2022-11-29T01:21:49.940Z,1.60
2022-11-29T01:24:16.514Z,1.33
2022-11-29T01:26:43.076Z,1.40
2022-11-29T01:29:11.195Z,1.20
2022-11-29T01:31:37.741Z,1.15
2022-11-29T01:34:06.450Z,1.30
2022-11-29T01:36:33.972Z,1.30
2022-11-29T01:39:01.743Z,1.05
2022-11-29T01:41:31.106Z,1.50
2022-11-29T01:44:26.613Z,1.25
2022-11-29T01:46:54.527Z,1.42
2022-11-29T01:49:23.996Z,1.20
2022-11-29T01:51:53.174Z,1.10
2022-11-29T01:54:20.414Z,1.00
2022-11-29T01:56:48.654Z,1.30
2022-11-29T01:59:19.497Z,1.05
2022-11-29T02:01:46.081Z,1.10
2022-11-29T02:04:12.775Z,1.10
2022-11-29T02:06:40.260Z,1.50
2022-11-29T02:09:18.167Z,1.27
2022-11-29T02:12:03.078Z,1.27
2022-11-29T02:14:58.693Z,1.33
2022-11-29T02:17:44.627Z,1.10
2022-11-29T02:20:24.556Z,1.00
2022-11-29T02:23:09.379Z,1.25
2022-11-29T02:25:49.301Z,0.95
2022-11-29T02:28:54.332Z,1.10
2022-11-29T02:31:37.828Z,1.50
2022-11-29T02:34:07.501Z,0.90
2022-11-29T02:37:10.078Z,1.00
2022-11-29T02:39:59.035Z,1.17
2022-11-29T02:42:56.515Z,1.20
2022-11-29T02:45:47.150Z,1.13
2022-11-29T02:48:38.273Z,1.13
2022-11-29T02:51:12.395Z,1.48
2022-11-29T02:54:11.304Z,1.20
2022-11-29T02:57:20.967Z,1.23
2022-11-29T03:00:07.234Z,1.40
2022-11-29T03:02:48.983Z,0.88
2022-11-29T03:05:47.146Z,1.02
2022-11-29T03:08:23.735Z,1.20
2022-11-29T03:10:59.335Z,1.30
2022-11-29T03:13:54.094Z,1.20
2022-11-29T03:16:43.326Z,1.45
2022-11-29T03:19:28.805Z,1.52
2022-11-29T03:21:58.343Z,1.90
2022-11-29T03:24:32.142Z,2.15
2022-11-29T03:27:13.421Z,1.60
2022-11-29T03:29:51.241Z,1.70
2022-11-29T03:32:55.464Z,2.00
2022-11-29T03:35:29.989Z,1.85
2022-11-29T03:38:22.259Z,1.73
2022-11-29T03:40:57.711Z,1.30
2022-11-29T03:43:42.092Z,1.30
2022-11-29T03:46:16.410Z,1.88
2022-11-29T03:48:47.621Z,2.10
2022-11-29T03:51:19.066Z,1.77
2022-11-29T03:53:54.305Z,2.13
2022-11-29T03:56:41.275Z,1.70
2022-11-29T03:59:47.799Z,1.70
2022-11-29T04:02:29.252Z,2.58
2022-11-29T04:05:33.408Z,2.25
2022-11-29T04:08:36.028Z,2.30
2022-11-29T04:11:12.996Z,2.42
2022-11-29T04:14:01.303Z,2.30
2022-11-29T04:16:52.201Z,2.33
2022-11-29T04:19:30.528Z,2.30
2022-11-29T04:22:15.761Z,2.05
2022-11-29T04:24:59.946Z,2.10
2022-11-29T04:27:48.623Z,1.90
2022-11-29T04:30:18.061Z,1.70
2022-11-29T04:33:07.647Z,1.63
2022-11-29T04:35:34.477Z,2.17
2022-11-29T04:38:15.317Z,1.60
2022-11-29T04:41:14.108Z,1.48
2022-11-29T04:43:59.444Z,1.40
2022-11-29T04:47:06.182Z,1.40
2022-11-29T04:50:04.659Z,1.50
2022-11-29T04:52:57.968Z,2.45
2022-11-29T04:55:46.994Z,1.90
2022-11-29T04:58:39.677Z,1.88
2022-11-29T05:01:34.274Z,1.65
2022-11-29T05:04:21.869Z,1.85
2022-11-29T05:07:06.840Z,1.67
2022-11-29T05:09:52.069Z,1.80
2022-11-29T05:12:25.540Z,2.20
2022-11-29T05:15:25.486Z,2.40
2022-11-29T05:18:16.607Z,2.80
2022-11-29T05:20:56.867Z,2.78
2022-11-29T05:23:47.635Z,2.60
2022-11-29T05:26:18.567Z,2.30
2022-11-29T05:29:02.173Z,2.63
2022-11-29T05:31:35.161Z,2.90
2022-11-29T05:34:35.333Z,3.13
2022-11-29T05:37:13.923Z,2.42
2022-11-29T05:39:54.837Z,2.20
2022-11-29T05:43:10.902Z,2.83
2022-11-29T05:45:43.651Z,2.40
2022-11-29T05:48:25.400Z,2.50
2022-11-29T05:51:11.780Z,3.42
2022-11-29T05:53:57.509Z,2.53
2022-11-29T05:56:55.059Z,2.60
2022-11-29T05:59:24.703Z,2.50
2022-11-29T06:02:10.557Z,3.28
2022-11-29T06:05:06.576Z,2.97
2022-11-29T06:07:45.807Z,2.97
2022-11-29T06:10:15.085Z,2.80
2022-11-29T06:12:42.731Z,2.67
2022-11-29T06:16:03.437Z,3.10
2022-11-29T06:18:48.343Z,2.78
2022-11-29T06:21:53.177Z,2.47
2022-11-29T06:24:39.144Z,2.95
2022-11-29T06:27:29.661Z,2.20
2022-11-29T06:30:06.891Z,2.25
2022-11-29T06:33:06.265Z,2.50
2022-11-29T06:35:48.882Z,2.25
2022-11-29T06:38:21.457Z,2.20
2022-11-29T06:40:49.117Z,2.25
2022-11-29T06:43:16.431Z,1.92
2022-11-29T06:45:47.971Z,1.92
2022-11-29T06:48:20.173Z,1.83
2022-11-29T06:50:49.795Z,1.80
2022-11-29T06:53:25.788Z,1.80
2022-11-29T06:56:09.602Z,1.77
2022-11-29T06:58:51.300Z,1.80
2022-11-29T07:01:38.262Z,1.60
2022-11-29T07:04:16.900Z,1.42
2022-11-29T07:06:43.724Z,1.60
2022-11-29T07:09:16.260Z,1.65
2022-11-29T07:11:43.507Z,1.60
2022-11-29T07:14:10.507Z,1.80
2022-11-29T07:17:00.125Z,1.60
2022-11-29T07:19:48.841Z,2.03
2022-11-29T07:22:30.469Z,2.22
2022-11-29T07:25:09.396Z,2.65
2022-11-29T07:27:35.993Z,2.30
2022-11-29T07:30:20.563Z,2.13
2022-11-29T07:33:04.955Z,2.00
2022-11-29T07:35:54.160Z,2.20
2022-11-29T07:38:36.479Z,2.80
2022-11-29T07:41:15.140Z,2.55
2022-11-29T07:43:53.854Z,2.55
2022-11-29T07:46:20.405Z,3.40
2022-11-29T07:48:46.993Z,2.80
2022-11-29T07:51:14.283Z,2.88
2022-11-29T07:53:42.978Z,2.63
2022-11-29T07:56:09.705Z,2.95
2022-11-29T07:58:36.491Z,2.33
2022-11-29T08:01:03.513Z,2.22
2022-11-29T08:03:30.215Z,2.13
2022-11-29T08:05:56.785Z,2.47
2022-11-29T08:08:23.249Z,2.50
2022-11-29T08:10:49.900Z,2.15
2022-11-29T08:13:20.627Z,1.85
2022-11-29T08:15:48.273Z,2.38
2022-11-29T08:18:15.540Z,2.30
2022-11-29T08:20:42.496Z,2.22
2022-11-29T08:23:11.441Z,2.60
2022-11-29T08:25:38.020Z,2.72
2022-11-29T08:28:05.509Z,2.28
2022-11-29T08:30:32.089Z,2.58
2022-11-29T08:32:58.858Z,2.05
2022-11-29T08:35:25.353Z,2.75
2022-11-29T08:37:51.849Z,2.00
2022-11-29T08:40:18.613Z,2.70
2022-11-29T08:42:45.620Z,2.42
2022-11-29T08:45:12.197Z,2.30
2022-11-29T08:47:40.203Z,2.00
2022-11-29T08:50:07.184Z,3.20
2022-11-29T08:52:54.389Z,3.05
2022-11-29T08:55:22.447Z,2.90
2022-11-29T08:57:50.164Z,2.85
2022-11-29T09:00:18.154Z,3.03
2022-11-29T09:02:44.696Z,2.72
2022-11-29T09:05:11.760Z,3.15
2022-11-29T09:07:39.023Z,2.58
2022-11-29T09:10:08.333Z,2.20
2022-11-29T09:12:36.536Z,2.70
2022-11-29T09:15:09.317Z,2.95
2022-11-29T09:17:36.074Z,2.75
2022-11-29T09:20:03.982Z,2.42
2022-11-29T09:22:30.543Z,2.25
2022-11-29T09:24:57.425Z,2.90
2022-11-29T09:27:23.923Z,2.22
2022-11-29T09:29:50.472Z,2.28
2022-11-29T09:32:16.960Z,2.83
2022-11-29T09:34:44.027Z,2.60
2022-11-29T09:37:10.866Z,2.47
2022-11-29T09:39:38.151Z,2.20
2022-11-29T09:42:24.216Z,2.38
2022-11-29T09:45:09.943Z,2.10
2022-11-29T09:48:08.786Z,1.88
2022-11-29T09:50:43.971Z,2.00
2022-11-29T09:53:30.207Z,1.58
2022-11-29T09:56:11.684Z,1.88
2022-11-29T09:59:16.302Z,3.65
2022-11-29T10:01:48.400Z,2.85
2022-11-29T10:04:21.830Z,2.35
2022-11-29T10:07:07.093Z,2.10
2022-11-29T10:09:39.191Z,2.60
2022-11-29T10:12:17.936Z,2.45
2022-11-29T10:14:49.846Z,2.20
2022-11-29T10:17:34.554Z,2.03
2022-11-29T10:20:29.787Z,1.75
2022-11-29T10:23:00.032Z,2.00
2022-11-29T10:25:32.393Z,1.95
2022-11-29T10:27:58.870Z,2.17
2022-11-29T10:30:25.799Z,1.70
2022-11-29T10:32:57.459Z,2.00
2022-11-29T10:35:24.203Z,1.90
2022-11-29T10:38:22.718Z,2.03
2022-11-29T10:40:42.436Z,2.00
2022-11-29T10:43:09.122Z,2.47
2022-11-29T10:45:40.523Z,2.75
2022-11-29T10:48:11.905Z,2.38
2022-11-29T10:50:41.868Z,2.00
2022-11-29T10:53:20.111Z,1.98
2022-11-29T10:55:50.486Z,2.17
2022-11-29T10:58:24.719Z,2.00
2022-11-29T11:01:13.422Z,1.58
2022-11-29T11:03:42.309Z,1.90
2022-11-29T11:06:12.250Z,1.90
2022-11-29T11:08:42.515Z,1.80
2022-11-29T11:11:09.574Z,2.20
2022-11-29T11:13:37.530Z,1.90
2022-11-29T11:16:16.864Z,1.83
2022-11-29T11:18:45.091Z,2.20
2022-11-29T11:21:13.715Z,1.88
2022-11-29T11:24:04.422Z,2.40
2022-11-29T11:26:44.515Z,2.13
2022-11-29T11:29:19.234Z,2.00
2022-11-29T11:31:53.547Z,1.95
2022-11-29T11:34:36.206Z,1.83
2022-11-29T11:37:14.681Z,2.00
2022-11-29T11:39:43.123Z,1.92
2022-11-29T11:42:35.168Z,1.42
2022-11-29T11:45:23.245Z,1.88
2022-11-29T11:47:53.038Z,1.70
2022-11-29T11:50:31.752Z,1.60
2022-11-29T11:53:02.458Z,1.85
2022-11-29T11:55:41.123Z,1.50
2022-11-29T11:58:17.694Z,1.65
2022-11-29T12:01:06.562Z,1.75
2022-11-29T12:03:35.891Z,1.65
2022-11-29T12:06:17.755Z,1.70
2022-11-29T12:08:46.781Z,2.10
2022-11-29T12:11:16.190Z,1.60
2022-11-29T12:13:49.392Z,1.60
2022-11-29T12:16:27.504Z,1.48
2022-11-29T12:19:15.317Z,1.40
2022-11-29T12:21:44.192Z,1.42
2022-11-29T12:24:22.690Z,1.45
2022-11-29T12:26:56.967Z,1.20
2022-11-29T12:29:26.999Z,1.08
2022-11-29T12:32:02.977Z,1.08
2022-11-29T12:34:48.546Z,1.20
2022-11-29T12:37:30.612Z,0.95
2022-11-29T12:40:28.350Z,1.20
2022-11-29T12:43:42.935Z,1.30
2022-11-29T12:46:21.991Z,1.30
2022-11-29T12:49:13.400Z,1.42
2022-11-29T12:51:55.179Z,1.10
2022-11-29T12:54:40.399Z,0.98
2022-11-29T12:57:18.967Z,1.10
2022-11-29T13:00:16.855Z,1.35
2022-11-29T13:03:00.139Z,1.30
2022-11-29T13:06:02.317Z,1.20
2022-11-29T13:08:47.486Z,1.20
2022-11-29T13:11:31.342Z,1.30
2022-11-29T13:14:40.984Z,0.80
2022-11-29T13:17:02.005Z,1.30
2022-11-29T13:19:53.707Z,1.25
2022-11-29T13:22:29.986Z,1.83
2022-11-29T13:24:59.832Z,2.28
2022-11-29T13:27:38.770Z,2.67
2022-11-29T13:30:06.221Z,2.10
2022-11-29T13:32:54.231Z,1.98
2022-11-29T13:35:37.483Z,1.60
2022-11-29T13:38:15.165Z,1.80
2022-11-29T13:41:23.230Z,1.98
2022-11-29T13:43:54.386Z,2.38
2022-11-29T13:46:39.233Z,2.30
2022-11-29T13:49:05.847Z,1.83
2022-11-29T13:51:39.090Z,2.20
2022-11-29T13:54:27.259Z,2.33
2022-11-29T13:57:06.487Z,1.60
2022-11-29T13:59:36.826Z,1.92
